Time;durP1;ratioP1;P1;durP2;ratioP2;P2;SDS_P1;SDS_P2;PMS_P1;PMS_P2;Temp;Humidity;BMP_temperature;BMP_pressure;BME280_temperature;BME280_humidity;BME280_pressure;Samples;Min_cycle;Max_cycle;Signal;HPM_P1;HPM_P2
2021/07/08 00:01:29;;;;;;;3.40;2.10;;;22.90;58.10;;;;;;5056462;28;20056;-86
2021/07/08 00:03:55;;;;;;;3.05;2.03;;;22.90;58.10;;;;;;5051510;28;20048;-86
2021/07/08 00:06:26;;;;;;;3.15;2.10;;;22.80;58.10;;;;;;5059583;28;20031;-86
2021/07/08 00:08:55;;;;;;;2.72;2.00;;;22.80;58.20;;;;;;5066971;28;20068;-87
2021/07/08 00:11:21;;;;;;;2.65;2.10;;;22.80;58.20;;;;;;5054156;28;20063;-87
2021/07/08 00:13:48;;;;;;;3.05;2.20;;;22.70;58.20;;;;;;5057052;28;20347;-86
2021/07/08 00:16:14;;;;;;;2.55;1.90;;;22.70;58.30;;;;;;5055935;28;20023;-85
2021/07/08 00:18:42;;;;;;;2.53;2.17;;;22.70;58.40;;;;;;5059325;28;20032;-86
2021/07/08 00:21:12;;;;;;;3.20;2.17;;;22.70;58.40;;;;;;5050829;28;20031;-87
2021/07/08 00:23:41;;;;;;;2.67;2.10;;;22.60;58.40;;;;;;5056093;28;20036;-86
2021/07/08 00:26:07;;;;;;;2.67;2.35;;;22.60;58.40;;;;;;5055242;28;20026;-86
2021/07/08 00:28:32;;;;;;;2.97;2.20;;;22.50;58.40;;;;;;5050523;28;20372;-85
2021/07/08 00:31:01;;;;;;;3.70;2.38;;;22.50;58.50;;;;;;5043062;28;20047;-87
2021/07/08 00:33:26;;;;;;;2.63;2.13;;;22.50;58.60;;;;;;5059336;28;20044;-86
2021/07/08 00:35:52;;;;;;;2.20;1.98;;;22.50;58.60;;;;;;5059310;28;20059;-86
2021/07/08 00:38:24;;;;;;;3.10;2.20;;;22.50;58.70;;;;;;5057517;28;20579;-86
2021/07/08 00:40:51;;;;;;;3.30;2.42;;;22.40;58.60;;;;;;5053902;28;20032;-86
2021/07/08 00:43:17;;;;;;;2.75;2.30;;;22.40;58.70;;;;;;5058972;28;20012;-86
2021/07/08 00:45:43;;;;;;;3.47;2.17;;;22.40;58.80;;;;;;5059596;28;20111;-86
2021/07/08 00:48:12;;;;;;;3.42;2.33;;;22.30;58.80;;;;;;5058406;28;20135;-86
2021/07/08 00:50:46;;;;;;;3.00;2.45;;;22.30;58.80;;;;;;5059077;28;20032;-87
2021/07/08 00:53:18;;;;;;;3.40;2.45;;;22.30;58.90;;;;;;5055187;28;20020;-86
2021/07/08 00:55:57;;;;;;;3.47;2.30;;;22.30;59.00;;;;;;5052462;28;20024;-86
2021/07/08 00:58:24;;;;;;;3.38;2.33;;;22.20;59.00;;;;;;5055697;28;20025;-86
2021/07/08 01:00:55;;;;;;;4.10;2.50;;;22.20;59.00;;;;;;5067772;28;20115;-86
2021/07/08 01:03:22;;;;;;;2.83;2.42;;;22.20;59.00;;;;;;5058033;28;20254;-86
2021/07/08 01:05:52;;;;;;;3.38;2.50;;;22.20;59.10;;;;;;5058718;28;20036;-86
2021/07/08 01:08:19;;;;;;;2.80;2.30;;;22.20;59.20;;;;;;5057766;28;20063;-86
2021/07/08 01:10:49;;;;;;;3.20;2.40;;;22.20;59.20;;;;;;5056677;28;20033;-86
2021/07/08 01:13:16;;;;;;;4.20;3.03;;;22.10;59.30;;;;;;5058726;28;20077;-86
2021/07/08 01:15:42;;;;;;;3.33;2.35;;;22.10;59.30;;;;;;5046766;28;20020;-86
2021/07/08 01:18:09;;;;;;;3.95;2.75;;;22.10;59.30;;;;;;5058513;28;20036;-86
2021/07/08 01:20:38;;;;;;;5.03;2.47;;;22.10;59.40;;;;;;5058212;28;20115;-86
2021/07/08 01:23:11;;;;;;;3.67;2.38;;;22.00;59.40;;;;;;5058661;28;20027;-86
2021/07/08 01:25:43;;;;;;;3.20;2.45;;;22.00;59.50;;;;;;5066905;28;20027;-86
2021/07/08 01:28:11;;;;;;;3.15;2.58;;;22.00;59.50;;;;;;5040842;28;20032;-86
2021/07/08 01:30:37;;;;;;;3.83;2.50;;;22.00;59.60;;;;;;5058365;28;20095;-85
2021/07/08 01:33:05;;;;;;;3.63;2.55;;;21.90;59.50;;;;;;5055264;28;20024;-85
2021/07/08 01:35:34;;;;;;;3.28;2.35;;;21.90;59.60;;;;;;5058059;28;20024;-86
2021/07/08 01:38:00;;;;;;;3.35;2.40;;;21.90;59.70;;;;;;5058843;28;20032;-85
2021/07/08 01:40:26;;;;;;;2.50;2.20;;;21.90;59.70;;;;;;5054809;28;20020;-85
2021/07/08 01:42:52;;;;;;;3.17;2.40;;;21.90;59.70;;;;;;5052607;28;20107;-85
2021/07/08 01:45:19;;;;;;;3.55;2.80;;;21.80;59.80;;;;;;5058691;28;20107;-86
2021/07/08 01:47:46;;;;;;;3.10;2.22;;;21.80;59.80;;;;;;5058577;28;20028;-85
2021/07/08 01:50:14;;;;;;;3.67;2.80;;;21.80;59.90;;;;;;5058390;28;20020;-85
2021/07/08 01:52:41;;;;;;;4.90;2.88;;;21.80;59.90;;;;;;5057934;28;20037;-86
2021/07/08 01:55:08;;;;;;;3.38;2.40;;;21.80;59.90;;;;;;5049784;28;20023;-85
2021/07/08 01:57:34;;;;;;;2.67;2.40;;;21.80;60.00;;;;;;5066730;28;20028;-86
2021/07/08 01:59:59;;;;;;;3.47;2.40;;;21.70;59.90;;;;;;5049653;28;20024;-85
2021/07/08 02:02:31;;;;;;;4.55;2.90;;;21.70;60.00;;;;;;5033133;28;20024;-85
2021/07/08 02:05:00;;;;;;;3.10;2.55;;;21.70;60.00;;;;;;5031953;28;20036;-86
2021/07/08 02:07:28;;;;;;;3.05;2.50;;;21.70;60.00;;;;;;5040357;28;20036;-86
2021/07/08 02:09:54;;;;;;;4.05;2.65;;;21.70;60.00;;;;;;5035080;28;20025;-85
2021/07/08 02:12:22;;;;;;;3.00;2.42;;;21.70;60.10;;;;;;5032207;28;20474;-86
2021/07/08 02:14:48;;;;;;;4.07;2.80;;;21.60;60.10;;;;;;5039014;28;20067;-85
2021/07/08 02:17:19;;;;;;;3.70;2.67;;;21.60;60.10;;;;;;5042350;28;20028;-85
2021/07/08 02:19:45;;;;;;;3.47;2.67;;;21.60;60.20;;;;;;5052233;28;20036;-85
2021/07/08 02:22:11;;;;;;;3.83;2.67;;;21.50;60.20;;;;;;5058531;28;20017;-86
2021/07/08 02:24:37;;;;;;;4.70;2.72;;;21.50;60.20;;;;;;5041875;28;20017;-86
2021/07/08 02:27:03;;;;;;;3.78;2.80;;;21.50;60.30;;;;;;5041773;28;20484;-85
2021/07/08 02:29:30;;;;;;;3.38;2.72;;;21.50;60.30;;;;;;5025402;28;20025;-85
2021/07/08 02:31:58;;;;;;;3.60;2.65;;;21.50;60.40;;;;;;5041846;28;20499;-86
2021/07/08 02:34:24;;;;;;;3.20;2.60;;;21.50;60.40;;;;;;5041645;28;20107;-86
2021/07/08 02:36:50;;;;;;;3.53;2.67;;;21.40;60.40;;;;;;5018514;28;20060;-85
2021/07/08 02:39:21;;;;;;;3.53;2.78;;;21.40;60.40;;;;;;5056513;28;20055;-85
2021/07/08 02:41:47;;;;;;;3.40;2.63;;;21.40;60.50;;;;;;5041426;28;20544;-85
2021/07/08 02:44:15;;;;;;;3.45;2.85;;;21.40;60.50;;;;;;5033169;28;20083;-85
2021/07/08 02:46:42;;;;;;;3.85;2.88;;;21.40;60.60;;;;;;5050038;28;20028;-85
2021/07/08 02:49:08;;;;;;;4.43;3.13;;;21.40;60.60;;;;;;5041362;28;20122;-85
2021/07/08 02:51:33;;;;;;;3.72;2.90;;;21.40;60.60;;;;;;5041421;28;20024;-85
2021/07/08 02:54:00;;;;;;;4.72;2.95;;;21.40;60.70;;;;;;5042095;28;20025;-86
2021/07/08 02:56:28;;;;;;;3.92;3.08;;;21.30;60.60;;;;;;5045494;28;20415;-86
2021/07/08 02:58:54;;;;;;;4.07;2.90;;;21.30;60.70;;;;;;5037731;28;20029;-86
2021/07/08 03:01:20;;;;;;;3.75;3.03;;;21.20;60.70;;;;;;5033991;28;20025;-86
2021/07/08 03:03:49;;;;;;;3.42;2.75;;;21.30;60.80;;;;;;5054007;28;20102;-86
2021/07/08 03:06:15;;;;;;;3.45;2.67;;;21.30;60.80;;;;;;5049349;28;20036;-85
2021/07/08 03:08:41;;;;;;;3.78;2.90;;;21.20;60.80;;;;;;5066990;28;20036;-85
2021/07/08 03:11:07;;;;;;;3.67;2.70;;;21.20;60.80;;;;;;5042248;28;20479;-86
2021/07/08 03:13:37;;;;;;;3.15;2.60;;;21.20;60.90;;;;;;5058526;28;20035;-86
2021/07/08 03:16:06;;;;;;;3.85;2.70;;;21.20;60.90;;;;;;5061108;28;20113;-85
2021/07/08 03:18:34;;;;;;;3.25;2.65;;;21.20;60.90;;;;;;5065677;28;20085;-85
2021/07/08 03:21:00;;;;;;;3.83;2.80;;;21.10;60.90;;;;;;5062185;28;20074;-86
2021/07/08 03:23:29;;;;;;;3.38;2.65;;;21.10;60.90;;;;;;5059412;28;20019;-86
2021/07/08 03:25:58;;;;;;;3.38;2.40;;;21.10;60.90;;;;;;5057661;28;20031;-86
2021/07/08 03:28:27;;;;;;;4.03;2.95;;;21.10;61.10;;;;;;5044305;28;20039;-86
2021/07/08 03:30:54;;;;;;;3.50;3.10;;;21.10;61.10;;;;;;5032807;28;20036;-86
2021/07/08 03:33:20;;;;;;;2.95;2.55;;;21.10;61.10;;;;;;5055562;28;20012;-87
2021/07/08 03:35:46;;;;;;;3.72;3.00;;;21.10;61.10;;;;;;5060507;28;20543;-86
2021/07/08 03:38:12;;;;;;;3.38;2.75;;;21.10;61.10;;;;;;5068525;28;20415;-86
2021/07/08 03:40:38;;;;;;;4.30;2.75;;;21.00;61.10;;;;;;5058900;28;20039;-85
2021/07/08 03:43:04;;;;;;;2.95;2.40;;;21.00;61.10;;;;;;5064514;28;20450;-86
2021/07/08 03:45:33;;;;;;;3.47;2.63;;;21.00;61.20;;;;;;5060571;28;20357;-86
2021/07/08 03:47:59;;;;;;;3.30;2.80;;;21.00;61.30;;;;;;5057028;28;20044;-85
2021/07/08 03:50:25;;;;;;;3.45;2.60;;;21.00;61.30;;;;;;5062569;28;20020;-86
2021/07/08 03:52:53;;;;;;;3.80;2.60;;;20.90;61.20;;;;;;5039221;28;20472;-84
2021/07/08 03:55:21;;;;;;;4.10;2.90;;;21.00;61.40;;;;;;5056900;28;20021;-85
2021/07/08 03:57:53;;;;;;;3.42;2.70;;;20.90;61.30;;;;;;5068202;28;20070;-85
2021/07/08 04:00:30;;;;;;;2.97;2.45;;;20.90;61.30;;;;;;5061791;28;20027;-85
2021/07/08 04:03:08;;;;;;;3.35;2.65;;;20.90;61.40;;;;;;5044732;28;20059;-86
2021/07/08 04:05:35;;;;;;;3.70;2.75;;;20.90;61.40;;;;;;5032524;28;20032;-83
2021/07/08 04:08:06;;;;;;;2.97;2.47;;;20.90;61.40;;;;;;5036801;28;20108;-85
2021/07/08 04:10:34;;;;;;;3.60;2.75;;;20.90;61.50;;;;;;5039268;28;20155;-87
2021/07/08 04:13:15;;;;;;;3.40;2.80;;;20.80;61.50;;;;;;5040000;28;20531;-87
2021/07/08 04:15:42;;;;;;;3.47;2.60;;;20.80;61.60;;;;;;5039918;28;20037;-89
2021/07/08 04:18:12;;;;;;;3.03;2.33;;;20.80;61.50;;;;;;5056563;28;20079;-86
2021/07/08 04:20:39;;;;;;;3.08;2.40;;;20.80;61.60;;;;;;5031423;28;20040;-88
2021/07/08 04:23:12;;;;;;;3.72;2.58;;;20.80;61.70;;;;;;5038540;28;20103;-86
2021/07/08 04:25:41;;;;;;;3.00;2.53;;;20.80;61.70;;;;;;5039790;28;20029;-89
2021/07/08 04:28:08;;;;;;;3.22;2.40;;;20.80;61.70;;;;;;5039674;28;20082;-87
2021/07/08 04:30:40;;;;;;;3.95;3.00;;;20.80;61.70;;;;;;5039904;28;20025;-89
2021/07/08 04:33:06;;;;;;;3.22;2.63;;;20.80;61.70;;;;;;5038367;28;20453;-88
2021/07/08 04:38:10;;;;;;;3.47;2.78;;;20.80;61.80;;;;;;5056042;28;20036;-88
2021/07/08 04:40:38;;;;;;;3.38;2.70;;;20.80;61.80;;;;;;5032456;28;20107;-87
2021/07/08 04:43:05;;;;;;;3.47;2.80;;;20.80;61.90;;;;;;5023158;28;20740;-87
2021/07/08 04:45:53;;;;;;;;;;;;;;;;;;;;;
2021/07/08 04:48:38;;;;;;;3.35;2.65;;;20.80;61.90;;;;;;5053315;28;20036;-87
2021/07/08 04:51:38;;;;;;;3.22;2.67;;;20.80;61.90;;;;;;5056130;28;20068;-88
2021/07/08 04:54:06;;;;;;;4.22;2.97;;;20.70;61.90;;;;;;5037004;28;20052;-88
2021/07/08 04:56:34;;;;;;;3.70;2.90;;;20.70;61.90;;;;;;5047388;28;20013;-88
2021/07/08 04:59:00;;;;;;;3.80;2.80;;;20.70;62.00;;;;;;5039280;28;20032;-88
2021/07/08 05:01:26;;;;;;;3.97;2.90;;;20.70;62.00;;;;;;5036218;28;20044;-88
2021/07/08 05:03:59;;;;;;;4.05;3.08;;;20.70;62.00;;;;;;5047430;28;20048;-89
2021/07/08 05:06:57;;;;;;;4.18;2.90;;;20.70;62.10;;;;;;5035462;28;20032;-94
2021/07/08 05:09:23;;;;;;;4.45;3.25;;;20.70;62.30;;;;;;5059264;28;20048;-87
2021/07/08 05:11:52;;;;;;;3.53;2.85;;;20.70;62.10;;;;;;5058508;28;20043;-86
2021/07/08 05:14:18;;;;;;;3.92;2.90;;;20.70;62.20;;;;;;5043192;28;20528;-87
2021/07/08 05:16:43;;;;;;;3.72;3.00;;;20.70;62.20;;;;;;5050692;28;20028;-89
2021/07/08 05:19:09;;;;;;;4.80;3.40;;;20.70;62.20;;;;;;5050334;28;20063;-88
2021/07/08 05:21:45;;;;;;;5.13;3.40;;;20.70;62.20;;;;;;5067448;28;20016;-88
2021/07/08 05:24:12;;;;;;;3.80;3.33;;;20.70;62.30;;;;;;5076289;28;20032;-90
2021/07/08 05:26:38;;;;;;;4.43;3.30;;;20.70;62.20;;;;;;5060767;28;20126;-88
2021/07/08 05:29:05;;;;;;;4.00;3.33;;;20.70;62.20;;;;;;5065625;28;20135;-89
2021/07/08 05:31:31;;;;;;;4.82;3.33;;;20.70;62.30;;;;;;5057649;28;20371;-87
2021/07/08 05:33:56;;;;;;;4.18;3.25;;;20.70;62.30;;;;;;5055465;28;20033;-87
2021/07/08 05:36:22;;;;;;;3.83;3.03;;;20.70;62.30;;;;;;5041882;28;20134;-88
2021/07/08 05:38:48;;;;;;;4.22;3.25;;;20.70;62.30;;;;;;5055340;28;20471;-88
2021/07/08 05:41:14;;;;;;;4.53;3.47;;;20.80;62.40;;;;;;5072357;28;20058;-87
2021/07/08 05:43:40;;;;;;;4.93;3.70;;;20.70;62.40;;;;;;5066990;28;20077;-88
2021/07/08 05:46:06;;;;;;;4.05;3.30;;;20.70;62.40;;;;;;5054708;28;20043;-87
2021/07/08 05:48:31;;;;;;;5.72;3.60;;;20.80;62.50;;;;;;5056923;28;20047;-87
2021/07/08 05:51:00;;;;;;;4.57;3.53;;;20.80;62.50;;;;;;5056204;28;20027;-88
2021/07/08 05:53:26;;;;;;;3.92;3.13;;;20.80;62.60;;;;;;5060014;28;20028;-87
2021/07/08 05:55:52;;;;;;;4.28;3.05;;;20.80;62.60;;;;;;5062125;28;20018;-87
2021/07/08 05:58:18;;;;;;;3.88;3.15;;;20.80;62.60;;;;;;5062495;28;20036;-88
2021/07/08 06:00:47;;;;;;;3.83;3.15;;;20.80;62.60;;;;;;5076160;28;20048;-88
2021/07/08 06:03:17;;;;;;;4.07;3.05;;;20.80;62.70;;;;;;5062126;28;20031;-87
2021/07/08 06:05:45;;;;;;;4.07;3.20;;;20.90;62.80;;;;;;5078126;28;20048;-87
2021/07/08 06:08:11;;;;;;;4.25;3.15;;;20.90;63.40;;;;;;5061703;28;20044;-87
2021/07/08 06:10:37;;;;;;;4.28;3.42;;;20.90;62.80;;;;;;5058878;28;20111;-87
2021/07/08 06:13:03;;;;;;;4.53;3.45;;;20.90;62.80;;;;;;5061149;28;20009;-88
2021/07/08 06:15:30;;;;;;;3.28;2.88;;;20.90;62.80;;;;;;5062108;28;20035;-87
2021/07/08 06:17:56;;;;;;;4.20;3.08;;;20.90;62.80;;;;;;5061222;28;20028;-87
2021/07/08 06:20:25;;;;;;;3.80;3.15;;;21.00;62.80;;;;;;5061714;28;20054;-87
2021/07/08 06:22:51;;;;;;;4.50;3.03;;;21.00;62.80;;;;;;5069724;28;20020;-87
2021/07/08 06:25:17;;;;;;;4.90;3.38;;;21.00;62.80;;;;;;5053355;28;20091;-87
2021/07/08 06:27:43;;;;;;;4.80;3.58;;;21.00;62.80;;;;;;5062129;28;20031;-87
2021/07/08 06:30:10;;;;;;;4.20;3.38;;;21.00;62.80;;;;;;5058255;28;20465;-87
2021/07/08 06:32:36;;;;;;;4.38;3.50;;;21.00;62.80;;;;;;5066486;28;20028;-88
2021/07/08 06:35:05;;;;;;;4.05;3.20;;;21.10;62.90;;;;;;5066362;28;20499;-88
2021/07/08 06:37:35;;;;;;;3.83;3.28;;;21.10;62.90;;;;;;5070497;28;20020;-87
2021/07/08 06:40:03;;;;;;;3.92;3.05;;;21.10;62.90;;;;;;5061718;28;20027;-88
2021/07/08 06:42:29;;;;;;;4.13;3.00;;;21.10;62.90;;;;;;5053179;28;20029;-88
2021/07/08 06:44:55;;;;;;;4.22;3.30;;;21.10;62.80;;;;;;5061592;28;20115;-87
2021/07/08 06:47:22;;;;;;;4.10;3.20;;;21.20;62.80;;;;;;5059019;28;20017;-87
2021/07/08 06:49:48;;;;;;;4.57;3.67;;;21.10;62.80;;;;;;5058136;28;20075;-87
2021/07/08 06:52:16;;;;;;;4.47;3.58;;;21.20;62.80;;;;;;5065882;28;20055;-88
2021/07/08 06:54:42;;;;;;;5.30;3.83;;;21.20;62.90;;;;;;5037126;28;20059;-88
2021/07/08 06:57:08;;;;;;;4.20;3.30;;;21.20;62.90;;;;;;5061159;28;20110;-88
2021/07/08 06:59:34;;;;;;;4.15;3.40;;;21.20;62.90;;;;;;5069319;28;20439;-85
2021/07/08 07:02:00;;;;;;;4.70;3.45;;;21.20;62.90;;;;;;5061425;28;20025;-88
2021/07/08 07:04:25;;;;;;;4.75;3.50;;;21.20;62.90;;;;;;5044364;28;20455;-87
2021/07/08 07:06:51;;;;;;;4.25;3.55;;;21.20;62.90;;;;;;5060852;28;20020;-87
2021/07/08 07:09:19;;;;;;;4.35;3.40;;;21.20;62.90;;;;;;5057947;28;20039;-87
2021/07/08 07:11:47;;;;;;;5.65;3.97;;;21.30;63.00;;;;;;5075693;28;20028;-88
2021/07/08 07:14:13;;;;;;;5.30;3.80;;;21.30;63.00;;;;;;5058095;28;20159;-89
2021/07/08 07:16:39;;;;;;;5.20;3.80;;;21.30;63.00;;;;;;5057598;28;20492;-88
2021/07/08 07:19:05;;;;;;;5.15;3.63;;;21.30;63.00;;;;;;5060477;28;20044;-88
2021/07/08 07:21:31;;;;;;;4.97;3.80;;;21.30;63.00;;;;;;5061536;28;20024;-88
2021/07/08 07:23:57;;;;;;;4.97;3.97;;;21.40;63.10;;;;;;5061008;28;20114;-88
2021/07/08 07:26:23;;;;;;;5.05;3.83;;;21.30;63.00;;;;;;5038115;28;20031;-88
2021/07/08 07:28:49;;;;;;;5.05;4.03;;;21.40;63.00;;;;;;5061014;28;20104;-87
2021/07/08 07:31:15;;;;;;;5.35;4.28;;;21.40;63.00;;;;;;5060385;28;20048;-88
2021/07/08 07:33:44;;;;;;;4.45;3.60;;;21.40;63.00;;;;;;5057071;28;20032;-88
2021/07/08 07:36:10;;;;;;;4.50;3.60;;;21.50;63.00;;;;;;5074494;28;20024;-88
2021/07/08 07:38:40;;;;;;;4.85;3.72;;;21.50;62.90;;;;;;5061106;28;20043;-87
2021/07/08 07:41:07;;;;;;;4.43;3.42;;;21.50;62.90;;;;;;5060619;28;20111;-87
2021/07/08 07:43:34;;;;;;;4.85;3.58;;;21.60;62.90;;;;;;5044038;28;20028;-88
2021/07/08 07:46:00;;;;;;;4.75;3.92;;;21.60;62.80;;;;;;5060711;28;20036;-88
2021/07/08 07:48:26;;;;;;;4.32;3.47;;;21.70;62.70;;;;;;5058365;28;20534;-88
2021/07/08 07:50:52;;;;;;;5.18;3.83;;;21.70;62.60;;;;;;5060396;28;20024;-88
2021/07/08 07:53:19;;;;;;;4.30;3.40;;;21.80;62.60;;;;;;5057454;28;20115;-87
2021/07/08 07:55:44;;;;;;;4.68;3.90;;;21.80;62.50;;;;;;5076766;28;20055;-87
2021/07/08 07:58:10;;;;;;;4.47;3.30;;;21.90;62.40;;;;;;5059960;28;20067;-87
2021/07/08 08:00:36;;;;;;;4.45;3.67;;;21.90;62.40;;;;;;5035101;28;20124;-87
2021/07/08 08:03:03;;;;;;;5.10;3.85;;;22.00;62.30;;;;;;5060145;28;20539;-87
2021/07/08 08:10:44;;;;;;;4.57;3.35;;;22.20;62.10;;;;;;5074045;28;20040;-88
2021/07/08 08:13:11;;;;;;;5.40;3.47;;;22.20;62.00;;;;;;5056328;28;20052;-88
2021/07/08 08:15:37;;;;;;;4.93;3.50;;;22.30;61.90;;;;;;5060329;28;20020;-88
2021/07/08 08:18:04;;;;;;;5.45;4.00;;;22.40;61.90;;;;;;5074887;28;20518;-88
2021/07/08 08:20:31;;;;;;;4.53;3.60;;;22.40;61.80;;;;;;5060456;28;20016;-88
2021/07/08 08:22:58;;;;;;;4.57;3.60;;;22.50;61.80;;;;;;5060348;28;20457;-88
2021/07/08 08:25:24;;;;;;;4.40;3.50;;;22.50;61.70;;;;;;5060378;28;20114;-89
2021/07/08 08:27:50;;;;;;;4.25;3.42;;;22.60;61.60;;;;;;5076596;28;20124;-89
2021/07/08 08:30:16;;;;;;;4.60;3.30;;;22.60;61.50;;;;;;5059711;28;20119;-89
2021/07/08 08:32:46;;;;;;;4.68;3.55;;;22.80;61.70;;;;;;5060453;28;20100;-89
2021/07/08 08:35:12;;;;;;;4.15;3.38;;;22.80;61.50;;;;;;5068372;28;20039;-88
2021/07/08 08:37:40;;;;;;;3.90;3.08;;;22.90;61.50;;;;;;5060220;28;20084;-88
2021/07/08 08:40:07;;;;;;;4.30;3.38;;;23.00;61.50;;;;;;5060091;28;20020;-87
2021/07/08 08:42:36;;;;;;;3.63;3.03;;;23.10;61.50;;;;;;5052751;28;20013;-89
2021/07/08 08:45:07;;;;;;;3.80;2.92;;;23.10;61.40;;;;;;5068732;28;20124;-89
2021/07/08 08:47:33;;;;;;;3.35;2.88;;;23.20;61.40;;;;;;5059643;28;20140;-89
2021/07/08 08:50:03;;;;;;;3.85;2.88;;;23.30;61.30;;;;;;5060158;28;20030;-89
2021/07/08 08:52:29;;;;;;;4.25;2.72;;;23.40;61.30;;;;;;5059647;28;20060;-88
2021/07/08 08:54:55;;;;;;;3.72;2.95;;;23.40;61.20;;;;;;5056603;28;20025;-89
2021/07/08 08:57:21;;;;;;;4.15;3.00;;;23.50;61.20;;;;;;5069063;28;20088;-89
2021/07/08 08:59:46;;;;;;;4.22;3.00;;;23.60;61.10;;;;;;5050639;28;20028;-90
2021/07/08 09:02:18;;;;;;;3.45;3.00;;;23.70;61.00;;;;;;5059970;28;20044;-89
2021/07/08 09:04:45;;;;;;;4.20;3.00;;;23.80;61.00;;;;;;5056821;28;20119;-89
2021/07/08 09:07:34;;;;;;;3.88;2.85;;;23.80;60.80;;;;;;5033308;28;20056;-89
2021/07/08 09:10:11;;;;;;;3.92;2.78;;;23.90;60.90;;;;;;5043097;28;20040;-90
2021/07/08 09:12:37;;;;;;;3.58;2.95;;;24.00;60.80;;;;;;5043907;28;20036;-90
2021/07/08 09:15:21;;;;;;;4.65;2.80;;;24.00;60.70;;;;;;5049657;28;20018;-90
2021/07/08 09:17:48;;;;;;;3.67;2.80;;;24.10;60.90;;;;;;5023207;28;20440;-90
2021/07/08 09:20:17;;;;;;;5.78;2.70;;;24.20;60.70;;;;;;5044470;28;20083;-92
2021/07/08 09:22:47;;;;;;;3.05;2.60;;;24.20;60.70;;;;;;5033920;28;20024;-90
2021/07/08 09:25:25;;;;;;;3.53;2.80;;;24.30;60.80;;;;;;5046971;28;20104;-89
2021/07/08 09:28:20;;;;;;;3.50;2.80;;;24.40;60.90;;;;;;5043793;28;20036;-88
2021/07/08 09:30:57;;;;;;;2.92;2.50;;;24.40;60.90;;;;;;5039415;28;20108;-89
2021/07/08 09:33:35;;;;;;;3.60;2.55;;;24.50;60.70;;;;;;5041579;28;20028;-90
2021/07/08 09:36:22;;;;;;;4.45;2.80;;;24.60;60.70;;;;;;5031742;28;20033;-90
2021/07/08 09:38:55;;;;;;;2.63;2.22;;;24.60;60.70;;;;;;5038970;28;20029;-88
2021/07/08 09:41:29;;;;;;;3.85;2.60;;;24.70;60.60;;;;;;5046467;28;20029;-88
2021/07/08 09:43:58;;;;;;;3.20;2.40;;;24.80;60.70;;;;;;5061009;28;20460;-89
2021/07/08 09:46:35;;;;;;;3.25;2.67;;;24.80;60.60;;;;;;5040692;28;20483;-89
2021/07/08 09:49:09;;;;;;;2.92;2.22;;;24.90;60.70;;;;;;5053285;28;20089;-88
2021/07/08 09:51:36;;;;;;;3.15;2.38;;;25.00;60.70;;;;;;5048775;28;20036;-89
2021/07/08 09:54:14;;;;;;;3.00;2.50;;;25.00;60.50;;;;;;5043603;28;20021;-89
2021/07/08 09:59:53;;;;;;;;;;;;;;;;;;;;;
2021/07/08 10:02:32;;;;;;;4.80;2.60;;;25.20;60.50;;;;;;5059166;28;20030;-89
2021/07/08 10:05:12;;;;;;;2.72;2.15;;;25.30;60.40;;;;;;5047902;28;20084;-89
2021/07/08 10:08:07;;;;;;;3.63;2.40;;;25.30;60.40;;;;;;5058197;28;20044;-88
2021/07/08 10:10:38;;;;;;;2.92;2.15;;;25.40;60.30;;;;;;5048180;28;20053;-90
2021/07/08 10:13:10;;;;;;;3.45;2.30;;;25.40;60.40;;;;;;5038777;28;20021;-89
2021/07/08 10:15:41;;;;;;;2.20;1.98;;;25.50;60.40;;;;;;5039110;28;20108;-89
2021/07/08 10:18:07;;;;;;;2.58;2.28;;;25.50;60.40;;;;;;5035517;28;20115;-89
2021/07/08 10:20:35;;;;;;;3.88;2.45;;;25.60;60.30;;;;;;5060634;28;20087;-89
2021/07/08 10:23:05;;;;;;;2.55;2.15;;;25.60;60.40;;;;;;5045448;28;20048;-89
2021/07/08 10:25:34;;;;;;;2.10;1.90;;;25.60;60.30;;;;;;5038439;28;20032;-89
2021/07/08 10:28:08;;;;;;;3.08;2.08;;;25.60;60.20;;;;;;5030357;28;20025;-88
2021/07/08 10:30:35;;;;;;;2.80;2.05;;;25.70;60.20;;;;;;5038267;28;20047;-88
2021/07/08 10:33:02;;;;;;;2.38;2.17;;;25.80;60.10;;;;;;5037571;28;20029;-89
2021/07/08 10:35:59;;;;;;;2.80;2.50;;;25.80;60.00;;;;;;5073770;28;20543;-88
2021/07/08 10:38:29;;;;;;;2.63;2.28;;;25.80;60.00;;;;;;5032783;28;20048;-88
2021/07/08 10:41:19;;;;;;;3.60;2.47;;;25.90;59.80;;;;;;5042708;28;20025;-89
2021/07/08 10:43:47;;;;;;;2.63;2.08;;;26.00;59.90;;;;;;5035647;28;20028;-89
2021/07/08 10:46:17;;;;;;;3.42;2.42;;;26.00;59.90;;;;;;5042367;28;20016;-89
2021/07/08 10:48:48;;;;;;;2.90;2.15;;;26.00;59.90;;;;;;5030882;28;20041;-89
2021/07/08 10:51:35;;;;;;;2.75;2.28;;;26.10;59.90;;;;;;5030461;28;20492;-89
2021/07/08 10:54:30;;;;;;;3.22;2.30;;;26.10;59.90;;;;;;5036142;28;20023;-90
2021/07/08 10:56:57;;;;;;;3.00;2.10;;;26.20;59.90;;;;;;5031287;28;20028;-89
2021/07/08 10:59:38;;;;;;;2.38;2.15;;;26.20;59.70;;;;;;5063796;28;20024;-88
2021/07/08 11:02:04;;;;;;;2.67;2.00;;;26.30;59.90;;;;;;5068264;28;20036;-88
2021/07/08 11:04:48;;;;;;;2.13;1.92;;;26.40;59.80;;;;;;5041809;28;20900;-88
2021/07/08 11:07:20;;;;;;;3.08;2.00;;;26.40;59.90;;;;;;5071933;28;20057;-90
2021/07/08 11:10:04;;;;;;;2.83;1.92;;;26.40;59.80;;;;;;5061883;28;20127;-89
2021/07/08 11:12:48;;;;;;;2.35;1.80;;;26.50;59.90;;;;;;5058717;28;20082;-89
2021/07/08 11:15:17;;;;;;;3.38;2.03;;;26.60;59.90;;;;;;5054091;28;20055;-89
2021/07/08 11:17:59;;;;;;;2.22;1.90;;;26.60;59.60;;;;;;5058576;28;20121;-87
2021/07/08 11:20:32;;;;;;;;;;;26.70;59.60;;;;;;5049587;28;20060;-89
2021/07/08 11:23:49;;;;;;;3.13;1.90;;;26.70;59.50;;;;;;5058567;28;19915;-88
2021/07/08 11:26:53;;;;;;;2.75;2.17;;;26.80;59.50;;;;;;5000445;28;20051;-87
2021/07/08 11:29:39;;;;;;;2.95;2.00;;;26.80;59.50;;;;;;5068429;28;20480;-87
2021/07/08 11:32:31;;;;;;;2.25;1.90;;;26.90;59.50;;;;;;5061808;28;20032;-88
2021/07/08 11:35:09;;;;;;;2.58;2.00;;;26.90;59.50;;;;;;5057242;28;20032;-89
2021/07/08 11:40:12;;;;;;;2.15;1.90;;;27.00;59.60;;;;;;5078079;28;20464;-89
2021/07/08 11:42:39;;;;;;;2.17;1.77;;;27.00;59.60;;;;;;5066038;28;20031;-88
2021/07/08 11:45:07;;;;;;;2.97;1.98;;;27.10;59.50;;;;;;5049453;28;20083;-88
2021/07/08 11:47:44;;;;;;;2.85;2.10;;;27.10;59.40;;;;;;5058555;28;20032;-88
2021/07/08 11:50:23;;;;;;;2.78;2.05;;;27.10;59.60;;;;;;5069914;28;20024;-87
2021/07/08 11:53:11;;;;;;;2.22;1.90;;;27.20;59.40;;;;;;5053089;28;20040;-87
2021/07/08 11:55:39;;;;;;;2.13;1.77;;;27.20;59.40;;;;;;5058613;28;20036;-88
2021/07/08 11:58:07;;;;;;;2.38;1.75;;;27.20;59.20;;;;;;5061090;28;20031;-88
2021/07/08 12:00:40;;;;;;;3.13;1.92;;;27.20;59.20;;;;;;5060595;28;20020;-88
2021/07/08 12:03:30;;;;;;;2.10;1.90;;;27.30;59.20;;;;;;5052189;28;20024;-88
2021/07/08 12:06:08;;;;;;;2.33;1.95;;;27.30;59.30;;;;;;5060263;28;20294;-88
2021/07/08 12:08:39;;;;;;;3.13;2.00;;;27.30;59.20;;;;;;5060034;28;20024;-88
2021/07/08 12:11:13;;;;;;;2.20;1.67;;;27.40;59.40;;;;;;5060478;28;20028;-88
2021/07/08 12:13:46;;;;;;;2.20;1.77;;;27.40;59.30;;;;;;5060098;28;20024;-88
2021/07/08 12:16:13;;;;;;;2.67;2.00;;;27.40;59.30;;;;;;5052622;28;20035;-89
2021/07/08 12:18:44;;;;;;;3.25;2.00;;;27.50;59.30;;;;;;5068755;28;20061;-89
2021/07/08 12:21:21;;;;;;;2.70;1.98;;;27.50;59.20;;;;;;5059659;28;20033;-88
2021/07/08 12:23:47;;;;;;;3.28;2.00;;;27.50;59.10;;;;;;5060266;28;20020;-89
2021/07/08 12:26:33;;;;;;;3.05;2.20;;;27.60;59.00;;;;;;5059100;28;20055;-89
2021/07/08 12:29:18;;;;;;;2.03;1.80;;;27.60;59.30;;;;;;5059659;28;20027;-89
2021/07/08 12:31:53;;;;;;;2.72;1.83;;;27.60;59.20;;;;;;5050684;28;20033;-89
2021/07/08 12:34:24;;;;;;;2.20;1.60;;;27.60;59.00;;;;;;5075380;28;20028;-88
2021/07/08 12:36:51;;;;;;;2.25;1.88;;;27.60;58.90;;;;;;5056875;28;20445;-90
2021/07/08 12:39:26;;;;;;;2.97;1.98;;;27.70;59.50;;;;;;5059828;28;20086;-89
2021/07/08 12:41:52;;;;;;;2.90;1.70;;;27.70;58.80;;;;;;5059553;28;20480;-87
2021/07/08 12:44:18;;;;;;;2.53;1.75;;;27.80;58.80;;;;;;5059898;28;20027;-89
2021/07/08 12:46:45;;;;;;;2.45;1.80;;;27.80;58.70;;;;;;5059588;28;20040;-88
2021/07/08 12:49:13;;;;;;;2.83;1.98;;;27.80;58.70;;;;;;5060059;28;20483;-89
2021/07/08 12:51:39;;;;;;;2.92;2.00;;;27.80;58.60;;;;;;5059849;28;20051;-87
2021/07/08 12:54:06;;;;;;;2.65;1.70;;;27.80;58.60;;;;;;5051643;28;20527;-89
2021/07/08 12:56:32;;;;;;;2.28;1.98;;;27.80;58.50;;;;;;5058787;28;20542;-88
2021/07/08 12:59:02;;;;;;;2.40;1.80;;;27.80;58.50;;;;;;5059213;28;20027;-90
2021/07/08 13:01:30;;;;;;;3.22;1.92;;;27.90;58.60;;;;;;5056728;28;20064;-90
2021/07/08 13:03:58;;;;;;;2.22;1.92;;;27.90;58.60;;;;;;5059788;28;20107;-89
2021/07/08 13:06:30;;;;;;;2.35;1.77;;;27.90;59.10;;;;;;5075061;28;20055;-90
2021/07/08 13:09:09;;;;;;;2.58;1.70;;;27.90;58.50;;;;;;5059415;28;20512;-89
2021/07/08 13:11:36;;;;;;;2.20;1.77;;;27.90;58.50;;;;;;5056665;28;20035;-88
2021/07/08 13:14:39;;;;;;;2.72;1.90;;;27.90;58.30;;;;;;5075126;28;20111;-87
2021/07/08 13:17:10;;;;;;;2.28;1.60;;;27.90;58.40;;;;;;4957966;28;20037;-89
2021/07/08 13:19:38;;;;;;;2.38;1.83;;;27.90;58.30;;;;;;5007677;28;20040;-89